createdAt,value
2018-07-20T00:02:39.094Z,91.30
2018-07-20T00:05:06.834Z,91.20
2018-07-20T00:10:02.021Z,91.60
2018-07-20T00:12:29.620Z,91.60
2018-07-20T00:14:57.250Z,91.20
2018-07-20T00:17:24.839Z,91.20
2018-07-20T00:19:52.459Z,91.00
2018-07-20T00:22:20.045Z,91.30
2018-07-20T00:24:47.676Z,91.80
2018-07-20T00:27:15.235Z,91.50
2018-07-20T00:29:42.835Z,91.70
2018-07-20T00:32:11.415Z,91.10
2018-07-20T00:34:39.070Z,90.50
2018-07-20T00:37:06.738Z,90.40
2018-07-20T00:39:34.345Z,91.10
2018-07-20T00:42:01.978Z,90.20
2018-07-20T00:44:29.595Z,90.80
2018-07-20T00:46:57.235Z,90.80
2018-07-20T00:54:19.909Z,91.20
2018-07-20T00:56:47.589Z,91.30
2018-07-20T00:59:15.215Z,91.50
2018-07-20T01:01:42.879Z,91.60
2018-07-20T01:04:10.480Z,92.10
2018-07-20T01:06:38.111Z,91.80
2018-07-20T01:09:07.516Z,92.00
2018-07-20T01:11:35.146Z,92.10
2018-07-20T01:14:02.736Z,92.00
2018-07-20T01:16:30.366Z,92.20
2018-07-20T01:21:25.461Z,92.40
2018-07-20T01:26:20.595Z,92.30
2018-07-20T01:28:48.147Z,92.40
2018-07-20T01:31:15.749Z,92.10
2018-07-20T01:36:10.856Z,92.10
2018-07-20T01:41:06.024Z,92.30
2018-07-20T01:43:33.655Z,92.10
2018-07-20T01:48:28.774Z,91.50
2018-07-20T01:53:23.845Z,90.70
2018-07-20T01:55:51.406Z,91.10
2018-07-20T01:58:19.051Z,91.70
2018-07-20T02:03:14.357Z,92.10
2018-07-20T02:05:41.992Z,92.00
2018-07-20T02:08:09.613Z,92.20
2018-07-20T02:10:37.163Z,92.10
2018-07-20T02:13:04.867Z,92.30
2018-07-20T02:15:32.463Z,92.10
2018-07-20T02:18:00.078Z,92.60
2018-07-20T02:20:27.658Z,92.10
2018-07-20T02:25:22.750Z,92.30
2018-07-20T02:27:50.371Z,92.50
2018-07-20T02:30:18.022Z,92.50
2018-07-20T02:35:13.132Z,92.80
2018-07-20T02:37:40.702Z,92.80
2018-07-20T02:40:08.359Z,92.80
2018-07-20T02:42:35.952Z,93.20
2018-07-20T02:45:03.747Z,93.20
2018-07-20T02:47:31.342Z,92.90
2018-07-20T02:49:58.983Z,93.00
2018-07-20T02:52:26.547Z,92.70
2018-07-20T02:54:54.173Z,92.70
2018-07-20T02:57:21.789Z,92.40
2018-07-20T02:59:49.400Z,92.70
2018-07-20T03:02:17.055Z,92.70
2018-07-20T03:04:44.671Z,92.90
2018-07-20T03:07:12.251Z,92.70
2018-07-20T03:09:39.827Z,92.00
2018-07-20T03:12:07.436Z,91.30
2018-07-20T03:14:35.013Z,91.20
2018-07-20T03:19:30.108Z,91.80
2018-07-20T03:21:57.722Z,92.30
2018-07-20T03:24:25.351Z,92.50
2018-07-20T03:26:52.945Z,92.60
2018-07-20T03:31:48.151Z,92.60
2018-07-20T03:34:15.746Z,93.00
2018-07-20T03:39:10.936Z,92.80
2018-07-20T03:41:38.886Z,92.90
2018-07-20T03:44:07.102Z,92.90
2018-07-20T03:46:34.715Z,93.10
2018-07-20T03:49:02.363Z,93.00
2018-07-20T03:51:29.946Z,93.20
2018-07-20T03:53:57.530Z,93.60
2018-07-20T03:56:25.151Z,93.30
2018-07-20T03:58:52.765Z,93.50
2018-07-20T04:01:20.372Z,93.50
2018-07-20T04:03:47.987Z,93.30
2018-07-20T04:06:15.678Z,92.90
2018-07-20T04:08:43.226Z,92.50
2018-07-20T04:11:10.856Z,92.60
2018-07-20T04:16:06.046Z,92.40
2018-07-20T04:18:33.646Z,92.50
2018-07-20T04:21:01.258Z,92.50
2018-07-20T04:23:28.832Z,92.30
2018-07-20T04:25:56.503Z,91.90
2018-07-20T04:28:24.097Z,91.50
2018-07-20T04:30:51.745Z,91.20
2018-07-20T04:33:19.342Z,91.20
2018-07-20T04:35:46.966Z,91.30
2018-07-20T04:38:14.595Z,91.80
2018-07-20T04:40:42.270Z,91.50
2018-07-20T04:45:37.386Z,91.00
2018-07-20T04:48:05.106Z,90.40
2018-07-20T04:50:32.730Z,90.30
2018-07-20T04:53:00.356Z,90.40
2018-07-20T04:55:28.001Z,90.40
2018-07-20T04:57:55.633Z,90.20
2018-07-20T05:00:23.290Z,90.30
2018-07-20T05:02:50.925Z,90.70
2018-07-20T05:05:18.782Z,91.30
2018-07-20T05:07:46.437Z,91.40
2018-07-20T05:10:14.057Z,90.90
2018-07-20T05:12:41.762Z,90.90
2018-07-20T05:15:09.410Z,90.60
2018-07-20T05:17:37.042Z,90.80
2018-07-20T05:20:04.751Z,90.10
2018-07-20T05:24:59.922Z,90.10
2018-07-20T05:27:27.553Z,89.90
2018-07-20T05:37:17.717Z,90.00
2018-07-20T05:42:12.926Z,88.90
2018-07-20T05:44:40.572Z,87.30
2018-07-20T05:47:08.157Z,85.80
2018-07-20T05:49:35.838Z,84.40
2018-07-20T05:54:31.031Z,84.80
2018-07-20T05:56:58.744Z,85.30
2018-07-20T05:59:26.387Z,84.70
2018-07-20T06:04:21.552Z,85.40
2018-07-20T06:06:49.207Z,85.40
2018-07-20T06:09:16.817Z,83.60
2018-07-20T06:11:44.460Z,82.40
2018-07-20T06:14:12.066Z,83.10
2018-07-20T06:16:39.697Z,82.50
2018-07-20T06:19:07.333Z,83.80
2018-07-20T06:24:02.514Z,86.30
2018-07-20T06:26:30.201Z,85.60
2018-07-20T06:28:57.832Z,87.40
2018-07-20T06:31:25.533Z,88.50
2018-07-20T06:33:53.178Z,90.00
2018-07-20T06:36:24.327Z,90.70
2018-07-20T06:38:52.261Z,90.80
2018-07-20T06:41:19.931Z,91.30
2018-07-20T06:43:47.643Z,91.00
2018-07-20T06:46:15.323Z,90.90
2018-07-20T06:48:42.962Z,84.40
2018-07-20T06:51:10.603Z,89.10
2018-07-20T06:53:38.267Z,87.20
2018-07-20T06:56:05.977Z,86.20
2018-07-20T06:58:33.562Z,85.30
2018-07-20T07:01:01.220Z,81.80
2018-07-20T07:03:28.832Z,82.10
2018-07-20T07:05:56.469Z,81.30
2018-07-20T07:08:24.271Z,83.90
2018-07-20T07:10:51.949Z,83.40
2018-07-20T07:13:19.602Z,82.00
2018-07-20T07:15:47.281Z,79.40
2018-07-20T07:18:14.907Z,78.90
2018-07-20T07:20:42.554Z,80.10
2018-07-20T07:23:10.166Z,74.40
2018-07-20T07:25:37.808Z,72.40
2018-07-20T07:28:05.458Z,71.60
2018-07-20T07:33:00.598Z,68.30
2018-07-20T07:35:28.996Z,69.10
2018-07-20T07:37:56.658Z,70.00
2018-07-20T07:40:24.325Z,62.20
2018-07-20T07:42:51.986Z,63.40
2018-07-20T07:45:19.643Z,62.60
2018-07-20T07:47:47.251Z,66.20
2018-07-20T07:50:14.931Z,66.70
2018-07-20T07:52:42.676Z,61.00
2018-07-20T07:55:10.387Z,60.00
2018-07-20T07:57:38.028Z,60.70
2018-07-20T08:00:05.704Z,61.30
2018-07-20T08:02:33.374Z,58.30
2018-07-20T08:07:28.486Z,59.10
2018-07-20T08:09:56.153Z,62.20
2018-07-20T08:12:23.714Z,58.00
2018-07-20T08:14:51.338Z,56.70
2018-07-20T08:19:46.478Z,55.80
2018-07-20T08:22:14.132Z,58.00
2018-07-20T08:27:09.243Z,53.70
2018-07-20T08:29:36.883Z,53.00
2018-07-20T08:34:32.059Z,52.60
2018-07-20T08:39:27.208Z,48.00
2018-07-20T08:41:54.856Z,48.80
2018-07-20T08:44:22.483Z,47.50
2018-07-20T08:46:50.169Z,46.70
2018-07-20T08:49:17.798Z,46.80
2018-07-20T08:51:45.466Z,47.40
2018-07-20T08:54:13.072Z,50.80
2018-07-20T08:56:40.753Z,49.20
2018-07-20T08:59:08.437Z,49.80
2018-07-20T09:01:36.045Z,48.00
2018-07-20T09:04:03.704Z,47.20
2018-07-20T09:06:31.400Z,53.10
2018-07-20T09:08:59.008Z,53.80
2018-07-20T09:13:54.419Z,49.70
2018-07-20T09:16:21.874Z,47.70
2018-07-20T09:18:49.589Z,48.20
2018-07-20T09:21:17.194Z,50.00
2018-07-20T09:23:44.914Z,44.90
2018-07-20T09:28:40.018Z,48.10
2018-07-20T09:31:07.660Z,48.60
2018-07-20T09:33:35.318Z,48.40
2018-07-20T09:36:03.043Z,45.40
2018-07-20T09:40:58.847Z,47.50
2018-07-20T09:43:27.078Z,46.50
2018-07-20T09:48:22.232Z,40.20
2018-07-20T09:50:49.910Z,40.70
2018-07-20T09:53:17.542Z,41.20
2018-07-20T09:55:45.165Z,40.10
2018-07-20T09:58:12.772Z,40.60
2018-07-20T10:05:41.083Z,42.30
2018-07-20T10:08:08.710Z,43.00
2018-07-20T10:10:36.338Z,43.10
2018-07-20T10:17:59.150Z,48.60
2018-07-20T10:20:26.814Z,48.60
2018-07-20T10:22:54.450Z,50.40
2018-07-20T10:27:49.625Z,50.70
2018-07-20T10:32:44.778Z,51.80
2018-07-20T10:35:12.443Z,49.90
2018-07-20T10:37:40.128Z,45.90
2018-07-20T10:40:07.795Z,45.00
2018-07-20T10:42:35.449Z,47.00
2018-07-20T10:45:03.154Z,43.80
2018-07-20T10:47:30.814Z,43.80
2018-07-20T10:49:58.432Z,42.40
2018-07-20T10:52:26.109Z,43.10
2018-07-20T10:54:53.774Z,41.10
2018-07-20T10:57:21.409Z,42.10
2018-07-20T10:59:49.375Z,41.50
2018-07-20T11:07:12.602Z,37.60
2018-07-20T11:12:08.092Z,35.80
2018-07-20T11:14:35.770Z,36.90
2018-07-20T11:17:03.468Z,38.30
2018-07-20T11:21:58.629Z,46.50
2018-07-20T11:24:26.305Z,45.20
2018-07-20T11:26:53.898Z,46.10
2018-07-20T11:29:21.682Z,48.30
2018-07-20T11:31:49.308Z,49.60
2018-07-20T11:34:17.025Z,49.40
2018-07-20T11:36:44.744Z,50.50
2018-07-20T11:39:12.378Z,50.90
2018-07-20T11:44:07.740Z,49.50
2018-07-20T11:46:35.427Z,48.60
2018-07-20T11:51:30.554Z,50.00
2018-07-20T11:53:58.223Z,46.50
2018-07-20T11:56:25.920Z,44.60
2018-07-20T11:58:53.658Z,42.60
2018-07-20T12:01:21.401Z,43.00
2018-07-20T12:06:16.753Z,43.80
2018-07-20T12:08:44.403Z,43.80
2018-07-20T12:13:39.594Z,45.30
2018-07-20T12:16:07.324Z,45.50
2018-07-20T12:18:34.917Z,45.50
2018-07-20T12:21:02.592Z,47.60
2018-07-20T12:23:30.247Z,48.10
2018-07-20T12:25:57.857Z,47.10
2018-07-20T12:28:25.473Z,46.20
2018-07-20T12:30:53.093Z,42.70
2018-07-20T12:35:48.253Z,40.80
2018-07-20T12:38:15.878Z,39.20
2018-07-20T12:43:11.002Z,39.60
2018-07-20T12:45:38.708Z,38.40
2018-07-20T12:48:06.685Z,35.50
2018-07-20T12:53:01.915Z,34.80
2018-07-20T12:57:57.124Z,45.20
2018-07-20T13:00:24.802Z,41.30
2018-07-20T13:02:52.401Z,42.70
2018-07-20T13:05:20.038Z,45.00
2018-07-20T13:07:47.774Z,50.30
2018-07-20T13:10:15.453Z,44.80
2018-07-20T13:12:43.164Z,44.90
2018-07-20T13:17:38.390Z,43.20
2018-07-20T13:27:28.706Z,38.80
2018-07-20T13:32:23.841Z,36.90
2018-07-20T13:34:51.517Z,36.90
2018-07-20T13:37:19.136Z,38.10
2018-07-20T13:39:46.782Z,38.20
2018-07-20T13:42:14.419Z,36.30
2018-07-20T13:44:42.105Z,36.10
2018-07-20T13:47:09.810Z,36.70
2018-07-20T13:49:37.488Z,34.70
2018-07-20T13:52:05.217Z,35.10
2018-07-20T13:54:32.936Z,34.80
2018-07-20T13:57:00.644Z,34.20
2018-07-20T13:59:28.310Z,32.50
2018-07-20T14:01:56.003Z,32.50
2018-07-20T14:09:18.724Z,32.50
2018-07-20T14:11:46.400Z,34.60
2018-07-20T14:14:14.068Z,30.70
2018-07-20T14:19:09.318Z,28.80
2018-07-20T14:21:37.056Z,28.90
2018-07-20T14:24:04.714Z,33.30
2018-07-20T14:26:32.360Z,35.30
2018-07-20T14:28:59.961Z,38.20
2018-07-20T14:31:27.703Z,44.80
2018-07-20T14:33:55.284Z,41.10
2018-07-20T14:36:22.941Z,42.90
2018-07-20T14:48:40.877Z,49.80
2018-07-20T14:53:36.065Z,51.00
2018-07-20T14:56:03.734Z,52.40
2018-07-20T15:00:58.870Z,55.70
2018-07-20T15:03:26.664Z,56.30
2018-07-20T15:05:54.271Z,56.50
2018-07-20T15:08:21.904Z,61.50
2018-07-20T15:10:49.570Z,68.00
2018-07-20T15:13:17.484Z,68.20
2018-07-20T15:15:45.164Z,68.80
2018-07-20T15:18:12.786Z,68.10
2018-07-20T15:20:40.416Z,70.60
2018-07-20T15:23:08.354Z,74.10
2018-07-20T15:25:36.020Z,74.00
2018-07-20T15:28:03.879Z,72.90
2018-07-20T15:30:31.530Z,74.90
2018-07-20T15:35:26.724Z,76.20
2018-07-20T15:37:54.324Z,76.20
2018-07-20T15:40:22.018Z,76.10
2018-07-20T15:42:49.618Z,75.90
2018-07-20T15:45:17.338Z,76.80
2018-07-20T15:50:12.514Z,80.40
2018-07-20T15:55:07.855Z,74.20
2018-07-20T15:57:35.898Z,72.60
2018-07-20T16:00:04.347Z,73.40
2018-07-20T16:02:31.907Z,75.30
2018-07-20T16:12:22.528Z,81.50
2018-07-20T16:14:50.208Z,82.70
2018-07-20T16:17:17.933Z,83.80
2018-07-20T16:19:45.546Z,83.90
2018-07-20T16:22:13.214Z,82.60
2018-07-20T16:24:40.854Z,80.80
2018-07-20T16:27:08.511Z,80.30
2018-07-20T16:32:03.689Z,80.90
2018-07-20T16:34:31.339Z,79.10
2018-07-20T16:36:58.976Z,79.80
2018-07-20T16:39:26.647Z,81.90
2018-07-20T16:44:21.815Z,85.10
2018-07-20T16:46:49.487Z,86.60
2018-07-20T16:51:44.611Z,90.70
2018-07-20T16:54:12.271Z,90.70
2018-07-20T16:56:40.002Z,91.90
2018-07-20T16:59:07.655Z,91.60
2018-07-20T17:01:35.361Z,92.70
2018-07-20T17:06:30.586Z,95.90
2018-07-20T17:13:53.431Z,98.90
2018-07-20T17:16:21.107Z,98.60
2018-07-20T17:18:48.738Z,99.50
2018-07-20T17:21:16.411Z,99.20
2018-07-20T17:23:44.090Z,99.70
2018-07-20T17:26:11.782Z,98.90
2018-07-20T17:28:39.446Z,99.90
2018-07-20T17:31:07.167Z,99.90
2018-07-20T17:36:02.337Z,99.90
2018-07-20T17:38:30.047Z,99.90
2018-07-20T17:40:57.700Z,99.90
2018-07-20T17:43:25.402Z,99.90
2018-07-20T17:53:15.891Z,99.90
2018-07-20T17:55:43.532Z,99.90
2018-07-20T17:58:11.282Z,99.90
2018-07-20T18:00:39.026Z,99.90
2018-07-20T18:08:02.295Z,99.90
2018-07-20T18:12:57.500Z,99.90
2018-07-20T18:17:53.682Z,99.90
2018-07-20T18:20:21.337Z,99.90
2018-07-20T18:22:49.057Z,99.90
2018-07-20T18:25:16.707Z,99.90
2018-07-20T18:27:44.411Z,99.90
2018-07-20T18:30:12.108Z,99.90
2018-07-20T18:32:39.751Z,99.90
2018-07-20T18:35:07.478Z,99.90
2018-07-20T18:37:35.211Z,99.90
2018-07-20T18:40:02.976Z,99.90
2018-07-20T18:42:30.657Z,99.90
2018-07-20T18:44:58.361Z,99.90
2018-07-20T18:47:26.017Z,99.90
2018-07-20T18:49:53.661Z,99.90
2018-07-20T18:57:16.495Z,99.90
2018-07-20T18:59:44.285Z,99.90
2018-07-20T19:04:39.540Z,99.90
2018-07-20T19:07:07.189Z,99.90
2018-07-20T19:09:34.868Z,99.90
2018-07-20T19:12:02.522Z,99.90
2018-07-20T19:14:30.356Z,99.90
2018-07-20T19:19:25.600Z,99.90
2018-07-20T19:21:53.403Z,99.90
2018-07-20T19:26:48.650Z,99.90
2018-07-20T19:29:16.333Z,99.90
2018-07-20T19:31:43.976Z,99.90
2018-07-20T19:34:12.790Z,99.90
2018-07-20T19:36:40.527Z,99.90
2018-07-20T19:39:24.660Z,99.90
2018-07-20T19:41:56.489Z,99.90
2018-07-20T19:47:03.466Z,99.90
2018-07-20T19:49:33.299Z,99.90
2018-07-20T19:54:39.781Z,99.90
2018-07-20T20:00:00.371Z,99.90
2018-07-20T20:02:43.540Z,99.90
2018-07-20T20:05:27.246Z,99.90
2018-07-20T20:17:45.765Z,99.90
2018-07-20T20:20:14.088Z,99.90
2018-07-20T20:22:42.730Z,99.90
2018-07-20T20:25:10.531Z,99.90
2018-07-20T20:27:54.402Z,99.90
2018-07-20T20:30:29.853Z,99.90
2018-07-20T20:32:58.211Z,99.90
2018-07-20T20:35:26.000Z,99.90
2018-07-20T20:37:54.446Z,99.90
2018-07-20T20:40:23.122Z,99.90
2018-07-20T20:45:18.835Z,99.90
2018-07-20T20:47:49.601Z,99.90
2018-07-20T20:50:21.307Z,99.90
2018-07-20T20:52:49.220Z,99.90
2018-07-20T20:55:17.830Z,99.90
2018-07-20T20:57:46.642Z,99.90
2018-07-20T21:00:16.736Z,99.90
2018-07-20T21:02:45.680Z,99.90
2018-07-20T21:05:17.640Z,99.90
2018-07-20T21:10:24.528Z,99.90
2018-07-20T21:13:15.066Z,99.90
2018-07-20T21:15:56.965Z,99.90
2018-07-20T21:18:37.416Z,99.90
2018-07-20T21:21:15.195Z,99.90
2018-07-20T21:23:53.400Z,99.90
2018-07-20T21:26:35.215Z,99.90
2018-07-20T21:29:27.369Z,99.90
2018-07-20T21:32:07.531Z,99.90
2018-07-20T21:37:49.097Z,99.90
2018-07-20T21:40:39.462Z,99.90
2018-07-20T21:43:18.431Z,99.90
2018-07-20T21:48:32.807Z,99.90
2018-07-20T21:51:20.951Z,99.90
2018-07-20T21:54:07.102Z,99.90
2018-07-20T21:56:45.410Z,99.90
2018-07-20T21:59:25.170Z,99.90
2018-07-20T22:02:02.535Z,99.90
2018-07-20T22:04:43.284Z,99.90
2018-07-20T22:07:23.332Z,99.90
2018-07-20T22:12:21.369Z,99.90
2018-07-20T22:14:49.021Z,99.90
2018-07-20T22:17:17.275Z,99.90
2018-07-20T22:24:40.522Z,99.90
2018-07-20T22:27:08.183Z,99.90
2018-07-20T22:29:35.977Z,99.90
2018-07-20T22:32:03.833Z,99.90
2018-07-20T22:34:31.567Z,99.90
2018-07-20T22:36:59.220Z,99.90
2018-07-20T22:39:26.846Z,99.90
2018-07-20T22:46:49.572Z,99.90
2018-07-20T22:49:17.152Z,99.90
2018-07-20T22:51:44.806Z,99.90
2018-07-20T22:54:12.455Z,99.90
2018-07-20T22:56:40.092Z,99.90
2018-07-20T22:59:07.750Z,99.90
2018-07-20T23:04:02.898Z,99.90
2018-07-20T23:06:30.511Z,99.90
2018-07-20T23:09:00.773Z,99.90
2018-07-20T23:11:28.362Z,99.90
2018-07-20T23:13:55.995Z,99.90
2018-07-20T23:21:19.110Z,99.90
2018-07-20T23:26:14.311Z,99.90
2018-07-20T23:28:41.894Z,99.90
2018-07-20T23:31:09.505Z,99.90
2018-07-20T23:33:37.122Z,99.90
2018-07-20T23:36:04.793Z,99.90
2018-07-20T23:38:32.420Z,99.90
2018-07-20T23:41:00.040Z,99.90
2018-07-20T23:43:27.646Z,99.90
2018-07-20T23:45:55.327Z,99.90
2018-07-20T23:48:22.923Z,99.90
2018-07-20T23:50:50.606Z,99.90
2018-07-20T23:53:18.686Z,99.90
2018-07-20T23:58:13.757Z,99.90
